createdAt,value
2018-04-27T00:00:19.565Z,0
2018-04-27T00:01:28.298Z,0
2018-04-27T00:02:37.049Z,0
2018-04-27T00:03:45.778Z,0
2018-04-27T00:04:54.510Z,0
2018-04-27T00:06:03.261Z,0
2018-04-27T00:07:12.278Z,0
2018-04-27T00:08:21.298Z,0
2018-04-27T00:09:30.054Z,0
2018-04-27T00:10:38.793Z,0
2018-04-27T00:11:47.544Z,0
2018-04-27T00:12:56.582Z,0
2018-04-27T00:14:05.592Z,0
2018-04-27T00:15:14.342Z,0
2018-04-27T00:16:23.079Z,0
2018-04-27T00:17:31.801Z,0
2018-04-27T00:18:40.549Z,0
2018-04-27T00:19:49.285Z,0
2018-04-27T00:20:58.018Z,0
2018-04-27T00:22:07.037Z,0
2018-04-27T00:23:15.785Z,0
2018-04-27T00:24:24.544Z,0
2018-04-27T00:25:33.572Z,0
2018-04-27T00:26:42.600Z,0
2018-04-27T00:27:51.602Z,0
2018-04-27T00:29:00.338Z,0
2018-04-27T00:30:09.068Z,0
2018-04-27T00:31:17.811Z,0
2018-04-27T00:32:26.829Z,0
2018-04-27T00:33:35.554Z,0
2018-04-27T00:34:44.294Z,0
2018-04-27T00:35:53.048Z,0
2018-04-27T00:37:02.050Z,0
2018-04-27T00:38:10.789Z,0
2018-04-27T00:39:19.820Z,0
2018-04-27T00:40:28.556Z,0
2018-04-27T00:41:37.282Z,0
2018-04-27T00:42:46.023Z,0
2018-04-27T00:43:55.041Z,0
2018-04-27T00:45:03.787Z,0
2018-04-27T00:46:12.516Z,0
2018-04-27T00:47:21.251Z,0
2018-04-27T00:48:30.002Z,0
2018-04-27T00:49:38.731Z,0
2018-04-27T00:50:47.457Z,0
2018-04-27T00:51:56.480Z,0
2018-04-27T00:53:05.216Z,0
2018-04-27T00:54:13.943Z,0
2018-04-27T00:55:22.967Z,0
2018-04-27T00:56:31.706Z,0
2018-04-27T00:57:40.449Z,0
2018-04-27T00:58:49.174Z,0
2018-04-27T00:59:57.910Z,0
2018-04-27T01:01:06.655Z,0
2018-04-27T01:02:15.395Z,0
2018-04-27T01:03:24.119Z,0
2018-04-27T01:04:32.867Z,0
2018-04-27T01:05:41.609Z,0
2018-04-27T01:06:50.336Z,0
2018-04-27T01:07:59.082Z,0
2018-04-27T01:09:07.826Z,0
2018-04-27T01:10:16.555Z,0
2018-04-27T01:11:25.290Z,0
2018-04-27T01:12:34.040Z,0
2018-04-27T01:13:43.048Z,0
2018-04-27T01:14:51.779Z,0
2018-04-27T01:16:00.535Z,0
2018-04-27T01:17:09.271Z,0
2018-04-27T01:18:17.998Z,0
2018-04-27T01:19:26.746Z,0
2018-04-27T01:20:35.481Z,0
2018-04-27T01:21:44.204Z,0
2018-04-27T01:22:52.954Z,0
2018-04-27T01:24:01.976Z,0
2018-04-27T01:25:11.255Z,0
2018-04-27T01:26:20.000Z,0
2018-04-27T01:27:28.730Z,0
2018-04-27T01:28:37.481Z,0
2018-04-27T01:29:46.212Z,0
2018-04-27T01:30:54.940Z,0
2018-04-27T01:32:03.688Z,0
2018-04-27T01:33:12.704Z,0
2018-04-27T01:34:21.428Z,0
2018-04-27T01:35:30.177Z,0
2018-04-27T01:36:38.916Z,0
2018-04-27T01:37:47.644Z,0
2018-04-27T01:38:56.381Z,0
2018-04-27T01:40:05.128Z,0
2018-04-27T01:41:13.859Z,0
2018-04-27T01:42:22.869Z,0
2018-04-27T01:43:31.594Z,0
2018-04-27T01:44:40.336Z,0
2018-04-27T01:45:49.080Z,0
2018-04-27T01:46:57.805Z,0
2018-04-27T01:48:06.838Z,0
2018-04-27T01:49:15.575Z,0
2018-04-27T01:50:24.577Z,0
2018-04-27T01:51:33.337Z,0
2018-04-27T01:52:42.068Z,0
2018-04-27T01:53:50.797Z,0
2018-04-27T01:54:59.535Z,0
2018-04-27T01:56:08.552Z,0
2018-04-27T01:57:17.593Z,0
2018-04-27T01:58:26.618Z,0
2018-04-27T01:59:35.345Z,0
2018-04-27T02:00:44.074Z,0
2018-04-27T02:01:52.825Z,0
2018-04-27T02:03:01.556Z,0
2018-04-27T02:04:10.559Z,0
2018-04-27T02:05:19.305Z,0
2018-04-27T02:06:28.381Z,0
2018-04-27T02:07:37.062Z,0
2018-04-27T02:08:45.805Z,0
2018-04-27T02:09:54.504Z,0
2018-04-27T02:11:03.185Z,0
2018-04-27T02:12:11.865Z,0
2018-04-27T02:13:20.502Z,0
2018-04-27T02:14:29.147Z,0
2018-04-27T02:15:37.784Z,0
2018-04-27T02:16:46.674Z,0
2018-04-27T02:17:55.324Z,0
2018-04-27T02:19:04.227Z,0
2018-04-27T02:20:13.121Z,0
2018-04-27T02:21:21.770Z,0
2018-04-27T02:22:30.479Z,0
2018-04-27T02:23:39.039Z,0
2018-04-27T02:24:47.676Z,0
2018-04-27T02:25:56.319Z,0
2018-04-27T02:27:05.226Z,0
2018-04-27T02:28:13.871Z,0
2018-04-27T02:29:22.495Z,0
2018-04-27T02:30:31.150Z,0
2018-04-27T02:31:39.798Z,0
2018-04-27T02:32:48.688Z,0
2018-04-27T02:33:57.591Z,0
2018-04-27T02:35:06.783Z,0
2018-04-27T02:36:15.416Z,0
2018-04-27T02:37:24.058Z,0
2018-04-27T02:38:32.975Z,0
2018-04-27T02:39:41.611Z,0
2018-04-27T02:40:50.256Z,0
2018-04-27T02:41:58.885Z,0
2018-04-27T02:43:07.535Z,0
2018-04-27T02:44:16.717Z,0
2018-04-27T02:45:25.883Z,0
2018-04-27T02:46:34.523Z,0
2018-04-27T02:47:43.174Z,0
2018-04-27T02:48:51.806Z,0
2018-04-27T02:50:00.701Z,0
2018-04-27T02:51:09.347Z,0
2018-04-27T02:52:17.987Z,0
2018-04-27T02:53:26.617Z,0
2018-04-27T02:54:35.264Z,0
2018-04-27T02:55:43.899Z,0
2018-04-27T02:56:52.819Z,0
2018-04-27T02:58:01.457Z,0
2018-04-27T02:59:10.087Z,0
2018-04-27T03:00:18.998Z,0
2018-04-27T03:01:27.632Z,0
2018-04-27T03:02:36.266Z,0
2018-04-27T03:03:44.921Z,0
2018-04-27T03:04:53.836Z,0
2018-04-27T03:06:02.461Z,0
2018-04-27T03:07:11.109Z,0
2018-04-27T03:08:20.021Z,0
2018-04-27T03:09:28.652Z,0
2018-04-27T03:10:37.552Z,0
2018-04-27T03:11:46.211Z,0
2018-04-27T03:12:54.845Z,0
2018-04-27T03:14:03.478Z,0
2018-04-27T03:15:12.127Z,0
2018-04-27T03:16:21.027Z,0
2018-04-27T03:17:29.659Z,0
2018-04-27T03:18:38.309Z,0
2018-04-27T03:19:47.207Z,0
2018-04-27T03:20:55.842Z,0
2018-04-27T03:22:04.750Z,0
2018-04-27T03:23:13.663Z,0
2018-04-27T03:24:22.562Z,0
2018-04-27T03:25:31.198Z,0
2018-04-27T03:26:39.828Z,0
2018-04-27T03:27:48.748Z,0
2018-04-27T03:28:57.648Z,0
2018-04-27T03:30:06.536Z,0
2018-04-27T03:31:15.193Z,0
2018-04-27T03:32:23.836Z,0
2018-04-27T03:33:32.466Z,0
2018-04-27T03:34:41.112Z,0
2018-04-27T03:35:49.759Z,4
2018-04-27T03:36:58.384Z,0
2018-04-27T03:38:07.027Z,0
2018-04-27T03:39:15.659Z,4
2018-04-27T03:40:24.312Z,4
2018-04-27T03:41:32.951Z,4
2018-04-27T03:42:41.587Z,4
2018-04-27T03:43:50.227Z,4
2018-04-27T03:44:58.875Z,8
2018-04-27T03:46:07.500Z,4
2018-04-27T03:47:16.144Z,4
2018-04-27T03:48:24.794Z,8
2018-04-27T03:49:33.480Z,8
2018-04-27T03:50:42.056Z,12
2018-04-27T03:51:50.726Z,16
2018-04-27T03:52:59.343Z,16
2018-04-27T03:54:07.988Z,16
2018-04-27T03:55:16.616Z,20
2018-04-27T03:56:25.255Z,24
2018-04-27T03:57:33.907Z,28
2018-04-27T03:58:42.532Z,32
2018-04-27T03:59:51.171Z,36
2018-04-27T04:01:00.168Z,44
2018-04-27T04:02:09.085Z,48
2018-04-27T04:03:17.716Z,52
2018-04-27T04:04:26.630Z,60
2018-04-27T04:05:35.264Z,64
2018-04-27T04:06:43.890Z,76
2018-04-27T04:07:52.540Z,84
2018-04-27T04:09:01.706Z,92
2018-04-27T04:10:10.357Z,100
2018-04-27T04:11:18.992Z,108
2018-04-27T04:12:27.627Z,116
2018-04-27T04:13:36.352Z,124
2018-04-27T04:14:44.910Z,132
2018-04-27T04:15:53.534Z,140
2018-04-27T04:17:02.181Z,144
2018-04-27T04:18:10.828Z,152
2018-04-27T04:19:19.455Z,160
2018-04-27T04:20:28.103Z,172
2018-04-27T04:21:36.746Z,184
2018-04-27T04:22:45.389Z,196
2018-04-27T04:23:54.281Z,208
2018-04-27T04:25:02.912Z,224
2018-04-27T04:26:11.558Z,244
2018-04-27T04:27:20.246Z,260
2018-04-27T04:28:28.829Z,280
2018-04-27T04:29:37.735Z,300
2018-04-27T04:30:46.381Z,328
2018-04-27T04:31:55.009Z,352
2018-04-27T04:33:03.653Z,376
2018-04-27T04:34:12.301Z,392
2018-04-27T04:35:20.933Z,408
2018-04-27T04:36:29.562Z,420
2018-04-27T04:37:38.471Z,432
2018-04-27T04:38:47.113Z,444
2018-04-27T04:39:55.759Z,452
2018-04-27T04:41:04.662Z,456
2018-04-27T04:42:13.568Z,464
2018-04-27T04:43:22.221Z,472
2018-04-27T04:44:30.859Z,484
2018-04-27T04:45:39.762Z,488
2018-04-27T04:46:48.414Z,500
2018-04-27T04:47:57.052Z,508
2018-04-27T04:49:05.678Z,528
2018-04-27T04:50:14.333Z,536
2018-04-27T04:51:22.966Z,560
2018-04-27T04:52:31.803Z,580
2018-04-27T04:53:40.239Z,604
2018-04-27T04:54:48.877Z,628
2018-04-27T04:55:57.525Z,652
2018-04-27T04:57:06.159Z,680
2018-04-27T04:58:14.786Z,700
2018-04-27T04:59:23.438Z,732
2018-04-27T05:00:32.073Z,768
2018-04-27T05:01:40.699Z,816
2018-04-27T05:02:49.430Z,852
2018-04-27T05:03:57.990Z,876
2018-04-27T05:05:06.615Z,908
2018-04-27T05:06:15.520Z,932
2018-04-27T05:07:24.167Z,956
2018-04-27T05:08:32.792Z,984
2018-04-27T05:09:41.430Z,1012
2018-04-27T05:10:50.148Z,1032
2018-04-27T05:11:59.144Z,1060
2018-04-27T05:13:07.791Z,1076
2018-04-27T05:14:16.433Z,1096
2018-04-27T05:15:25.067Z,1116
2018-04-27T05:16:33.698Z,1140
2018-04-27T05:17:42.349Z,1156
2018-04-27T05:18:51.244Z,1180
2018-04-27T05:19:59.873Z,1200
2018-04-27T05:21:08.522Z,1224
2018-04-27T05:22:17.161Z,1232
2018-04-27T05:23:25.812Z,1260
2018-04-27T05:24:34.441Z,1284
2018-04-27T05:25:43.072Z,1304
2018-04-27T05:26:51.989Z,1328
2018-04-27T05:28:00.629Z,1348
2018-04-27T05:29:09.255Z,1376
2018-04-27T05:30:17.910Z,1396
2018-04-27T05:31:26.548Z,1392
2018-04-27T05:32:35.182Z,1432
2018-04-27T05:33:43.826Z,1448
2018-04-27T05:34:52.473Z,1436
2018-04-27T05:36:01.110Z,1368
2018-04-27T05:37:09.749Z,1496
2018-04-27T05:38:18.378Z,1528
2018-04-27T05:39:27.030Z,1520
2018-04-27T05:40:35.714Z,1500
2018-04-27T05:41:44.309Z,1520
2018-04-27T05:42:52.956Z,1540
2018-04-27T05:44:01.606Z,1528
2018-04-27T05:45:10.239Z,1576
2018-04-27T05:46:19.150Z,1588
2018-04-27T05:47:28.075Z,1608
2018-04-27T05:48:36.969Z,1668
2018-04-27T05:49:45.606Z,1640
2018-04-27T05:50:54.243Z,1748
2018-04-27T05:52:02.892Z,1824
2018-04-27T05:53:11.538Z,1908
2018-04-27T05:54:20.167Z,1920
2018-04-27T05:55:29.139Z,1924
2018-04-27T05:56:37.738Z,2080
2018-04-27T05:57:46.369Z,2084
2018-04-27T05:58:55.004Z,2072
2018-04-27T06:00:03.662Z,1768
2018-04-27T06:01:12.285Z,1864
2018-04-27T06:02:20.918Z,1944
2018-04-27T06:03:29.570Z,1920
2018-04-27T06:04:38.556Z,1992
2018-04-27T06:05:47.490Z,2068
2018-04-27T06:06:56.120Z,2060
2018-04-27T06:08:05.022Z,2200
2018-04-27T06:09:13.673Z,2364
2018-04-27T06:10:22.302Z,2452
2018-04-27T06:11:30.938Z,2536
2018-04-27T06:12:39.850Z,2548
2018-04-27T06:13:48.490Z,2496
2018-04-27T06:14:57.121Z,2636
2018-04-27T06:16:05.820Z,2568
2018-04-27T06:17:14.734Z,2544
2018-04-27T06:18:23.365Z,2492
2018-04-27T06:19:32.013Z,2548
2018-04-27T06:20:40.646Z,2672
2018-04-27T06:21:49.298Z,2672
2018-04-27T06:22:58.201Z,2608
2018-04-27T06:24:07.091Z,2588
2018-04-27T06:25:15.743Z,2640
2018-04-27T06:26:24.388Z,2648
2018-04-27T06:27:33.016Z,2616
2018-04-27T06:28:41.666Z,2684
2018-04-27T06:29:50.312Z,2808
2018-04-27T06:30:58.951Z,2956
2018-04-27T06:32:07.851Z,2840
2018-04-27T06:33:16.503Z,2916
2018-04-27T06:34:25.164Z,3144
2018-04-27T06:35:33.790Z,3328
2018-04-27T06:36:42.421Z,3208
2018-04-27T06:37:51.338Z,3212
2018-04-27T06:38:59.986Z,3292
2018-04-27T06:40:08.613Z,3296
2018-04-27T06:41:17.256Z,3464
2018-04-27T06:42:25.908Z,3472
2018-04-27T06:43:34.538Z,3752
2018-04-27T06:44:43.174Z,3728
2018-04-27T06:45:51.825Z,3828
2018-04-27T06:47:00.726Z,3888
2018-04-27T06:48:09.360Z,3916
2018-04-27T06:49:18.007Z,3928
2018-04-27T06:50:26.652Z,3912
2018-04-27T06:51:35.354Z,4040
2018-04-27T06:52:43.937Z,4036
2018-04-27T06:53:52.570Z,3944
2018-04-27T06:55:01.231Z,3856
2018-04-27T06:56:09.860Z,3820
2018-04-27T06:57:18.494Z,3748
2018-04-27T06:58:27.146Z,3708
2018-04-27T06:59:35.784Z,3660
2018-04-27T07:00:44.418Z,3600
2018-04-27T07:01:53.069Z,3516
2018-04-27T07:03:01.982Z,3472
2018-04-27T07:04:10.615Z,3532
2018-04-27T07:05:19.329Z,3580
2018-04-27T07:06:27.925Z,3632
2018-04-27T07:07:36.551Z,3684
2018-04-27T07:08:45.200Z,3728
2018-04-27T07:09:53.849Z,3736
2018-04-27T07:11:02.480Z,3740
2018-04-27T07:12:11.116Z,3732
2018-04-27T07:13:19.771Z,3692
2018-04-27T07:14:28.416Z,3472
2018-04-27T07:15:37.061Z,3740
2018-04-27T07:16:45.710Z,3756
2018-04-27T07:17:54.346Z,3732
2018-04-27T07:19:02.997Z,3688
2018-04-27T07:20:11.889Z,3624
2018-04-27T07:21:20.530Z,3668
2018-04-27T07:22:29.181Z,3628
2018-04-27T07:23:37.818Z,3628
2018-04-27T07:24:46.453Z,3536
2018-04-27T07:25:55.168Z,3500
2018-04-27T07:27:03.748Z,3524
2018-04-27T07:28:12.379Z,3268
2018-04-27T07:29:21.033Z,3512
2018-04-27T07:30:29.690Z,3416
2018-04-27T07:31:38.319Z,3428
2018-04-27T07:32:46.968Z,3308
2018-04-27T07:33:55.888Z,3152
2018-04-27T07:35:04.533Z,3184
2018-04-27T07:36:13.176Z,3316
2018-04-27T07:37:21.804Z,3320
2018-04-27T07:38:30.460Z,3416
2018-04-27T07:39:39.177Z,3472
2018-04-27T07:40:48.605Z,3416
2018-04-27T07:41:57.244Z,3328
2018-04-27T07:43:06.163Z,3260
2018-04-27T07:44:14.791Z,3304
2018-04-27T07:45:23.438Z,3392
2018-04-27T07:46:32.092Z,3376
2018-04-27T07:47:40.727Z,3240
2018-04-27T07:48:49.377Z,3308
2018-04-27T07:49:57.998Z,3308
2018-04-27T07:51:06.652Z,3352
2018-04-27T07:52:15.306Z,3372
2018-04-27T07:53:23.931Z,3428
2018-04-27T07:54:32.574Z,3472
2018-04-27T07:55:41.232Z,3492
2018-04-27T07:56:49.864Z,3504
2018-04-27T07:57:58.501Z,3532
2018-04-27T07:59:07.159Z,3600
2018-04-27T08:00:15.799Z,3688
2018-04-27T08:01:24.693Z,3756
2018-04-27T08:02:33.736Z,3724
2018-04-27T08:03:42.652Z,3752
2018-04-27T08:04:51.307Z,3680
2018-04-27T08:05:59.938Z,3748
2018-04-27T08:07:08.860Z,3776
2018-04-27T08:08:17.493Z,3680
2018-04-27T08:09:26.133Z,3664
2018-04-27T08:10:34.770Z,3632
2018-04-27T08:11:43.424Z,3608
2018-04-27T08:12:52.062Z,3616
2018-04-27T08:14:00.696Z,3552
2018-04-27T08:15:09.354Z,3504
2018-04-27T08:16:18.015Z,3484
2018-04-27T08:17:26.655Z,3536
2018-04-27T08:18:35.306Z,3576
2018-04-27T08:19:43.931Z,3624
2018-04-27T08:20:52.863Z,3640
2018-04-27T08:22:01.521Z,3712
2018-04-27T08:23:10.418Z,3700
2018-04-27T08:24:19.076Z,3724
2018-04-27T08:25:27.721Z,3692
2018-04-27T08:26:36.355Z,3712
2018-04-27T08:27:45.002Z,3732
2018-04-27T08:28:53.650Z,3868
2018-04-27T08:30:02.282Z,3932
2018-04-27T08:31:10.929Z,4016
2018-04-27T08:32:19.566Z,4092
2018-04-27T08:33:28.223Z,4292
2018-04-27T08:34:36.866Z,4484
2018-04-27T08:35:45.767Z,4648
2018-04-27T08:36:54.425Z,4812
2018-04-27T08:38:03.081Z,4992
2018-04-27T08:39:11.715Z,5164
2018-04-27T08:40:20.363Z,5300
2018-04-27T08:41:29.281Z,5408
2018-04-27T08:42:37.913Z,5544
2018-04-27T08:43:46.616Z,5696
2018-04-27T08:44:55.474Z,5856
2018-04-27T08:46:04.115Z,6020
2018-04-27T08:47:12.764Z,6072
2018-04-27T08:48:21.399Z,6076
2018-04-27T08:49:30.041Z,6120
2018-04-27T08:50:38.700Z,6160
2018-04-27T08:51:47.330Z,6136
2018-04-27T08:52:55.976Z,6124
2018-04-27T08:54:04.630Z,6136
2018-04-27T08:55:13.269Z,6108
2018-04-27T08:56:21.905Z,6048
2018-04-27T08:57:30.566Z,5980
2018-04-27T08:58:39.210Z,5936
2018-04-27T08:59:48.102Z,5968
2018-04-27T09:00:56.760Z,6004
2018-04-27T09:02:05.670Z,6040
2018-04-27T09:03:14.301Z,6132
2018-04-27T09:04:22.955Z,6232
2018-04-27T09:05:31.608Z,6288
2018-04-27T09:06:40.241Z,6416
2018-04-27T09:07:48.890Z,6448
2018-04-27T09:08:57.817Z,6440
2018-04-27T09:10:06.708Z,6488
2018-04-27T09:11:15.354Z,6488
2018-04-27T09:12:24.008Z,6460
2018-04-27T09:13:32.645Z,6448
2018-04-27T09:14:41.284Z,6440
2018-04-27T09:15:50.460Z,6516
2018-04-27T09:16:59.104Z,6604
2018-04-27T09:18:08.026Z,6648
2018-04-27T09:19:16.659Z,6736
2018-04-27T09:20:25.304Z,6840
2018-04-27T09:21:33.979Z,6764
2018-04-27T09:22:42.597Z,6812
2018-04-27T09:23:51.236Z,7048
2018-04-27T09:24:59.893Z,6924
2018-04-27T09:26:08.536Z,6864
2018-04-27T09:27:17.167Z,6864
2018-04-27T09:28:26.094Z,6752
2018-04-27T09:29:34.738Z,6680
2018-04-27T09:30:43.651Z,6636
2018-04-27T09:31:52.287Z,6664
2018-04-27T09:33:00.935Z,6688
2018-04-27T09:34:09.593Z,6692
2018-04-27T09:35:18.504Z,6616
2018-04-27T09:36:27.137Z,6744
2018-04-27T09:37:35.793Z,7280
2018-04-27T09:38:44.438Z,6980
2018-04-27T09:39:53.080Z,6888
2018-04-27T09:41:01.782Z,6768
2018-04-27T09:42:10.435Z,6600
2018-04-27T09:43:19.070Z,6800
2018-04-27T09:44:27.829Z,6864
2018-04-27T09:45:36.734Z,7056
2018-04-27T09:46:45.980Z,7464
2018-04-27T09:47:54.651Z,7252
2018-04-27T09:49:03.547Z,7048
2018-04-27T09:50:12.476Z,6968
2018-04-27T09:51:21.387Z,6912
2018-04-27T09:52:30.261Z,6904
2018-04-27T09:53:38.908Z,7180
2018-04-27T09:54:47.610Z,6992
2018-04-27T09:55:56.244Z,6960
2018-04-27T09:57:04.894Z,6916
2018-04-27T09:58:13.552Z,7008
2018-04-27T09:59:22.414Z,7048
2018-04-27T10:00:31.100Z,6912
2018-04-27T10:01:39.732Z,6772
2018-04-27T10:02:48.385Z,6976
2018-04-27T10:03:57.060Z,6764
2018-04-27T10:05:05.772Z,6792
2018-04-27T10:06:14.682Z,6784
2018-04-27T10:07:23.335Z,6860
2018-04-27T10:08:31.979Z,6952
2018-04-27T10:09:40.614Z,6860
2018-04-27T10:10:49.273Z,6872
2018-04-27T10:11:58.183Z,6828
2018-04-27T10:13:06.818Z,6840
2018-04-27T10:14:15.472Z,6764
2018-04-27T10:15:24.119Z,6816
2018-04-27T10:16:33.039Z,6764
2018-04-27T10:17:41.936Z,6808
2018-04-27T10:18:50.574Z,6840
2018-04-27T10:19:59.248Z,6936
2018-04-27T10:21:08.165Z,7016
2018-04-27T10:22:16.798Z,7092
2018-04-27T10:23:25.458Z,7064
2018-04-27T10:24:34.106Z,7248
2018-04-27T10:25:42.744Z,7352
2018-04-27T10:26:51.400Z,7328
2018-04-27T10:28:00.050Z,7220
2018-04-27T10:29:08.692Z,7100
2018-04-27T10:30:17.339Z,6984
2018-04-27T10:31:25.973Z,6888
2018-04-27T10:32:34.632Z,6760
2018-04-27T10:33:43.276Z,6688
2018-04-27T10:34:51.913Z,6568
2018-04-27T10:36:00.577Z,6640
2018-04-27T10:37:09.507Z,6612
2018-04-27T10:38:18.143Z,6472
2018-04-27T10:39:26.791Z,6460
2018-04-27T10:40:35.716Z,6792
2018-04-27T10:41:44.351Z,6904
2018-04-27T10:42:52.998Z,6864
2018-04-27T10:44:01.641Z,6636
2018-04-27T10:45:10.298Z,6456
2018-04-27T10:46:18.946Z,6528
2018-04-27T10:47:27.586Z,6360
2018-04-27T10:48:36.237Z,6172
2018-04-27T10:49:44.895Z,5924
2018-04-27T10:50:54.087Z,5692
2018-04-27T10:52:02.737Z,5580
2018-04-27T10:53:11.395Z,5480
2018-04-27T10:54:20.033Z,5488
2018-04-27T10:55:28.673Z,5572
2018-04-27T10:56:37.331Z,5628
2018-04-27T10:57:45.985Z,5944
2018-04-27T10:58:54.619Z,5916
2018-04-27T11:00:03.280Z,5968
2018-04-27T11:01:12.203Z,5972
2018-04-27T11:02:20.835Z,5992
2018-04-27T11:03:29.491Z,6200
2018-04-27T11:04:38.145Z,6220
2018-04-27T11:05:46.785Z,5960
2018-04-27T11:06:55.431Z,5992
2018-04-27T11:08:04.089Z,5848
2018-04-27T11:09:12.726Z,5996
2018-04-27T11:10:21.373Z,6076
2018-04-27T11:11:30.034Z,6304
2018-04-27T11:12:38.668Z,6428
2018-04-27T11:13:47.589Z,6684
2018-04-27T11:14:56.222Z,6956
2018-04-27T11:16:04.874Z,7064
2018-04-27T11:17:13.531Z,7052
2018-04-27T11:18:22.173Z,6884
2018-04-27T11:19:30.813Z,6748
2018-04-27T11:20:39.475Z,6664
2018-04-27T11:21:48.113Z,6604
2018-04-27T11:22:56.757Z,6552
2018-04-27T11:24:05.414Z,6548
2018-04-27T11:25:14.060Z,6420
2018-04-27T11:26:22.698Z,6068
2018-04-27T11:27:31.352Z,5912
2018-04-27T11:28:40.336Z,5720
2018-04-27T11:29:48.919Z,5840
2018-04-27T11:30:57.562Z,5976
2018-04-27T11:32:06.206Z,6416
2018-04-27T11:33:14.864Z,6276
2018-04-27T11:34:23.772Z,6552
2018-04-27T11:35:32.412Z,6528
2018-04-27T11:36:41.334Z,5976
2018-04-27T11:37:49.986Z,5780
2018-04-27T11:38:58.619Z,6276
2018-04-27T11:40:07.545Z,6444
2018-04-27T11:41:16.277Z,5732
2018-04-27T11:42:24.844Z,5192
2018-04-27T11:43:33.750Z,5240
2018-04-27T11:44:42.385Z,6264
2018-04-27T11:45:51.045Z,6444
2018-04-27T11:46:59.698Z,6264
2018-04-27T11:48:08.333Z,6280
2018-04-27T11:49:16.990Z,6464
2018-04-27T11:50:25.919Z,6540
2018-04-27T11:51:34.823Z,6300
2018-04-27T11:52:43.476Z,5948
2018-04-27T11:53:52.131Z,5212
2018-04-27T11:55:00.772Z,4956
2018-04-27T11:56:09.681Z,4856
2018-04-27T11:57:18.324Z,5672
2018-04-27T11:58:26.980Z,6612
2018-04-27T11:59:35.633Z,6364
2018-04-27T12:00:44.273Z,4972
2018-04-27T12:01:53.225Z,5060
2018-04-27T12:03:01.884Z,5256
2018-04-27T12:04:10.522Z,5100
2018-04-27T12:05:19.222Z,4692
2018-04-27T12:06:27.834Z,5420
2018-04-27T12:07:36.475Z,5828
2018-04-27T12:08:45.114Z,6060
2018-04-27T12:09:53.778Z,6508
2018-04-27T12:11:02.421Z,6308
2018-04-27T12:12:11.071Z,5316
2018-04-27T12:13:19.713Z,5940
2018-04-27T12:14:28.360Z,6096
2018-04-27T12:15:37.303Z,4768
2018-04-27T12:16:46.227Z,6388
2018-04-27T12:17:54.876Z,4484
2018-04-27T12:19:03.529Z,4128
2018-04-27T12:20:12.440Z,4040
2018-04-27T12:21:21.072Z,3920
2018-04-27T12:22:29.735Z,3888
2018-04-27T12:23:38.377Z,3944
2018-04-27T12:24:47.281Z,4048
2018-04-27T12:25:55.938Z,4144
2018-04-27T12:27:04.581Z,4396
2018-04-27T12:28:13.239Z,4448
2018-04-27T12:29:21.882Z,4716
2018-04-27T12:30:30.785Z,6064
2018-04-27T12:31:39.535Z,4980
2018-04-27T12:32:48.103Z,5152
2018-04-27T12:33:56.734Z,5716
2018-04-27T12:35:05.389Z,5328
2018-04-27T12:36:14.045Z,6504
2018-04-27T12:37:22.685Z,5968
2018-04-27T12:38:31.334Z,7292
2018-04-27T12:39:39.996Z,6540
2018-04-27T12:40:48.904Z,5940
2018-04-27T12:41:57.556Z,5648
2018-04-27T12:43:06.194Z,5680
2018-04-27T12:44:14.845Z,6020
2018-04-27T12:45:23.502Z,4416
2018-04-27T12:46:32.141Z,3980
2018-04-27T12:47:40.792Z,3572
2018-04-27T12:48:49.448Z,4028
2018-04-27T12:49:58.087Z,3908
2018-04-27T12:51:06.731Z,3904
2018-04-27T12:52:15.755Z,4504
2018-04-27T12:53:24.596Z,4772
2018-04-27T12:54:33.241Z,4940
2018-04-27T12:55:42.436Z,5292
2018-04-27T12:56:51.355Z,4528
2018-04-27T12:58:00.334Z,4648
2018-04-27T12:59:09.022Z,4164
2018-04-27T13:00:17.676Z,3736
2018-04-27T13:01:26.312Z,4032
2018-04-27T13:02:34.965Z,4584
2018-04-27T13:03:43.627Z,4140
2018-04-27T13:04:52.260Z,4896
2018-04-27T13:06:00.921Z,6560
2018-04-27T13:07:09.579Z,6928
2018-04-27T13:08:18.220Z,5552
2018-04-27T13:09:26.872Z,6388
2018-04-27T13:10:35.516Z,5748
2018-04-27T13:11:44.171Z,6456
2018-04-27T13:12:52.830Z,7136
2018-04-27T13:14:01.463Z,5264
2018-04-27T13:15:10.409Z,4272
2018-04-27T13:16:19.070Z,4480
2018-04-27T13:17:27.970Z,4572
2018-04-27T13:18:36.618Z,4460
2018-04-27T13:19:45.280Z,4112
2018-04-27T13:20:53.926Z,4028
2018-04-27T13:22:02.568Z,4080
2018-04-27T13:23:11.228Z,4352
2018-04-27T13:24:19.872Z,4648
2018-04-27T13:25:28.528Z,4712
2018-04-27T13:26:37.612Z,4712
2018-04-27T13:27:46.550Z,4888
2018-04-27T13:28:55.209Z,5448
2018-04-27T13:30:03.856Z,6268
2018-04-27T13:31:12.490Z,6588
2018-04-27T13:32:21.153Z,6580
2018-04-27T13:33:29.797Z,6280
2018-04-27T13:34:38.437Z,6168
2018-04-27T13:35:47.098Z,6264
2018-04-27T13:36:55.748Z,6252
2018-04-27T13:38:04.387Z,5708
2018-04-27T13:39:13.039Z,6116
2018-04-27T13:40:21.678Z,5460
2018-04-27T13:41:30.608Z,5932
2018-04-27T13:42:39.267Z,5884
2018-04-27T13:43:48.160Z,6276
2018-04-27T13:44:56.823Z,5608
2018-04-27T13:46:05.470Z,5376
2018-04-27T13:47:14.112Z,4804
2018-04-27T13:48:23.301Z,4768
2018-04-27T13:49:31.960Z,5204
2018-04-27T13:50:40.599Z,5536
2018-04-27T13:51:49.327Z,6824
2018-04-27T13:52:58.178Z,6748
2018-04-27T13:54:06.813Z,7436
2018-04-27T13:55:15.457Z,7144
2018-04-27T13:56:24.118Z,6164
2018-04-27T13:57:33.021Z,5568
2018-04-27T13:58:41.664Z,5124
2018-04-27T13:59:50.324Z,4644
2018-04-27T14:00:58.974Z,4444
2018-04-27T14:02:07.611Z,4692
2018-04-27T14:03:16.270Z,5728
2018-04-27T14:04:24.922Z,6452
2018-04-27T14:05:33.893Z,6496
2018-04-27T14:06:42.493Z,5420
2018-04-27T14:07:51.150Z,5224
2018-04-27T14:08:59.798Z,4784
2018-04-27T14:10:08.441Z,4356
2018-04-27T14:11:17.105Z,3976
2018-04-27T14:12:25.735Z,4056
2018-04-27T14:13:34.390Z,4868
2018-04-27T14:14:43.033Z,4748
2018-04-27T14:15:51.687Z,4812
2018-04-27T14:17:00.348Z,6028
2018-04-27T14:18:08.987Z,6108
2018-04-27T14:19:17.641Z,5768
2018-04-27T14:20:26.302Z,5820
2018-04-27T14:21:34.947Z,4508
2018-04-27T14:22:43.591Z,4012
2018-04-27T14:23:52.239Z,4976
2018-04-27T14:25:01.160Z,4816
2018-04-27T14:26:10.360Z,3608
2018-04-27T14:27:18.997Z,3316
2018-04-27T14:28:28.183Z,3152
2018-04-27T14:29:36.839Z,2904
2018-04-27T14:30:45.476Z,2828
2018-04-27T14:31:54.119Z,2896
2018-04-27T14:33:02.787Z,3056
2018-04-27T14:34:11.429Z,3048
2018-04-27T14:35:20.070Z,3236
2018-04-27T14:36:28.730Z,3668
2018-04-27T14:37:37.374Z,4116
2018-04-27T14:38:46.032Z,4544
2018-04-27T14:39:54.666Z,5316
2018-04-27T14:41:03.396Z,5964
2018-04-27T14:42:11.976Z,6784
2018-04-27T14:43:20.638Z,6712
2018-04-27T14:44:29.271Z,6408
2018-04-27T14:45:37.933Z,4780
2018-04-27T14:46:46.576Z,4136
2018-04-27T14:47:55.485Z,4576
2018-04-27T14:49:04.217Z,4244
2018-04-27T14:50:12.797Z,3944
2018-04-27T14:51:21.438Z,3952
2018-04-27T14:52:30.413Z,4092
2018-04-27T14:53:39.022Z,4192
2018-04-27T14:54:47.662Z,3856
2018-04-27T14:55:56.309Z,4040
2018-04-27T14:57:04.979Z,2964
2018-04-27T14:58:13.606Z,2704
2018-04-27T14:59:22.255Z,2812
2018-04-27T15:00:30.912Z,2916
2018-04-27T15:01:39.559Z,2596
2018-04-27T15:02:48.194Z,3040
2018-04-27T15:03:56.857Z,3140
2018-04-27T15:05:05.503Z,3024
2018-04-27T15:06:14.139Z,3064
2018-04-27T15:07:22.796Z,3076
2018-04-27T15:08:31.443Z,3040
2018-04-27T15:09:40.104Z,3872
2018-04-27T15:10:48.745Z,3244
2018-04-27T15:11:57.394Z,3016
2018-04-27T15:13:06.315Z,2680
2018-04-27T15:14:14.963Z,2756
2018-04-27T15:15:23.865Z,3000
2018-04-27T15:16:33.059Z,2976
2018-04-27T15:17:41.708Z,2912
2018-04-27T15:18:50.347Z,3096
2018-04-27T15:19:59.003Z,3028
2018-04-27T15:21:07.656Z,3520
2018-04-27T15:22:16.300Z,3528
2018-04-27T15:23:24.950Z,3440
2018-04-27T15:24:33.850Z,3508
2018-04-27T15:25:42.507Z,3436
2018-04-27T15:26:51.154Z,3240
2018-04-27T15:27:59.791Z,3064
2018-04-27T15:29:08.448Z,3168
2018-04-27T15:30:17.101Z,3156
2018-04-27T15:31:25.737Z,2856
2018-04-27T15:32:34.385Z,2484
2018-04-27T15:33:43.129Z,2640
2018-04-27T15:34:51.691Z,2440
2018-04-27T15:36:00.420Z,2520
2018-04-27T15:37:08.986Z,2556
2018-04-27T15:38:17.644Z,2616
2018-04-27T15:39:26.297Z,2456
2018-04-27T15:40:35.201Z,2708